createdAt,value
2022-08-15T00:00:34.555Z,96263.50
2022-08-15T00:03:09.953Z,96268.69
2022-08-15T00:05:41.271Z,96271.69
2022-08-15T00:08:49.607Z,96267.25
2022-08-15T00:11:18.402Z,96275.53
2022-08-15T00:14:00.155Z,96270.63
2022-08-15T00:16:37.260Z,96256.69
2022-08-15T00:19:09.809Z,96254.44
2022-08-15T00:21:39.510Z,96246.25
2022-08-15T00:24:20.387Z,96247.88
2022-08-15T00:26:54.733Z,96243.56
2022-08-15T00:29:38.063Z,96240.91
2022-08-15T00:33:03.076Z,96238.16
2022-08-15T00:35:02.640Z,96238.81
2022-08-15T00:38:12.331Z,96243.38
2022-08-15T00:40:31.516Z,96240.31
2022-08-15T00:43:00.797Z,96249.38
2022-08-15T00:45:34.303Z,96255.00
2022-08-15T00:48:20.561Z,96249.34
2022-08-15T00:50:48.986Z,96248.72
2022-08-15T00:53:17.817Z,96252.31
2022-08-15T00:55:48.597Z,96245.97
2022-08-15T00:58:34.148Z,96245.22
2022-08-15T01:01:10.059Z,96252.41
2022-08-15T01:03:53.112Z,96249.88
2022-08-15T01:06:30.761Z,96247.91
2022-08-15T01:09:11.674Z,96247.19
2022-08-15T01:11:46.142Z,96245.31
2022-08-15T01:14:55.744Z,96248.66
2022-08-15T01:17:07.574Z,96258.13
2022-08-15T01:19:42.873Z,96257.63
2022-08-15T01:22:35.428Z,96251.16
2022-08-15T01:25:25.008Z,96251.56
2022-08-15T01:28:02.197Z,96244.59
2022-08-15T01:31:01.345Z,96233.75
2022-08-15T01:33:29.786Z,96238.38
2022-08-15T01:36:01.738Z,96234.28
2022-08-15T01:39:00.019Z,96229.53
2022-08-15T01:41:42.430Z,96232.41
2022-08-15T01:44:36.513Z,96227.59
2022-08-15T01:47:15.323Z,96224.94
2022-08-15T01:49:59.254Z,96229.78
2022-08-15T01:52:57.479Z,96231.81
2022-08-15T01:55:43.895Z,96215.84
2022-08-15T01:58:14.577Z,96219.09
2022-08-15T02:00:55.275Z,96213.25
2022-08-15T02:03:35.027Z,96217.78
2022-08-15T02:06:34.536Z,96218.50
2022-08-15T02:09:18.120Z,96219.38
2022-08-15T02:12:00.156Z,96224.47
2022-08-15T02:14:38.349Z,96230.44
2022-08-15T02:17:14.773Z,96229.47
2022-08-15T02:19:50.341Z,96231.31
2022-08-15T02:22:26.852Z,96230.13
2022-08-15T02:24:59.291Z,96217.47
2022-08-15T02:27:32.217Z,96216.16
2022-08-15T02:30:07.129Z,96219.41
2022-08-15T02:32:38.121Z,96204.44
2022-08-15T02:35:09.955Z,96213.75
2022-08-15T02:37:39.592Z,96215.44
2022-08-15T02:40:44.543Z,96215.44
2022-08-15T02:43:03.255Z,96215.34
2022-08-15T02:45:38.277Z,96202.53
2022-08-15T02:48:28.822Z,96202.91
2022-08-15T02:51:03.722Z,96200.38
2022-08-15T02:53:32.850Z,96199.63
2022-08-15T02:56:13.332Z,96196.00
2022-08-15T02:58:43.114Z,96195.59
2022-08-15T03:01:15.200Z,96195.47
2022-08-15T03:03:50.761Z,96206.00
2022-08-15T03:06:31.584Z,96204.97
2022-08-15T03:09:08.677Z,96197.72
2022-08-15T03:11:57.178Z,96201.56
2022-08-15T03:14:36.324Z,96204.25
2022-08-15T03:17:10.616Z,96196.44
2022-08-15T03:19:45.288Z,96197.16
2022-08-15T03:22:35.550Z,96203.47
2022-08-15T03:25:05.288Z,96200.47
2022-08-15T03:27:34.694Z,96201.94
2022-08-15T03:30:08.549Z,96205.41
2022-08-15T03:32:54.947Z,96200.06
2022-08-15T03:35:29.812Z,96203.69
2022-08-15T03:38:05.724Z,96205.34
2022-08-15T03:40:38.772Z,96202.19
2022-08-15T03:43:13.327Z,96196.00
2022-08-15T03:45:50.133Z,96202.28
2022-08-15T03:48:28.164Z,96191.59
2022-08-15T03:50:59.584Z,96197.09
2022-08-15T03:53:34.435Z,96192.25
2022-08-15T03:56:06.878Z,96197.31
2022-08-15T03:58:40.130Z,96196.41
2022-08-15T04:01:17.225Z,96198.38
2022-08-15T04:03:47.898Z,96201.44
2022-08-15T04:06:27.971Z,96198.06
2022-08-15T04:09:12.938Z,96206.31
2022-08-15T04:11:47.049Z,96207.28
2022-08-15T04:14:31.436Z,96205.09
2022-08-15T04:17:12.631Z,96209.09
2022-08-15T04:19:55.918Z,96213.69
2022-08-15T04:22:53.653Z,96210.63
2022-08-15T04:25:38.447Z,96204.00
2022-08-15T04:28:29.407Z,96200.78
2022-08-15T04:31:12.461Z,96212.94
2022-08-15T04:34:22.133Z,96219.13
2022-08-15T04:36:37.943Z,96215.03
2022-08-15T04:39:06.706Z,96213.97
2022-08-15T04:41:50.382Z,96209.41
2022-08-15T04:44:28.668Z,96214.63
2022-08-15T04:46:59.041Z,96220.31
2022-08-15T04:49:29.396Z,96224.41
2022-08-15T04:52:08.258Z,96229.88
2022-08-15T04:54:37.018Z,96224.72
2022-08-15T04:57:17.679Z,96220.97
2022-08-15T05:00:05.677Z,96213.94
2022-08-15T05:03:04.220Z,96216.88
2022-08-15T05:05:37.286Z,96221.22
2022-08-15T05:08:14.252Z,96220.19
2022-08-15T05:10:45.485Z,96220.41
2022-08-15T05:13:16.936Z,96208.16
2022-08-15T05:15:53.894Z,96207.91
2022-08-15T05:18:28.177Z,96204.84
2022-08-15T05:20:59.651Z,96207.50
2022-08-15T05:23:42.755Z,96201.47
2022-08-15T05:26:58.250Z,96203.81
2022-08-15T05:29:27.901Z,96203.25
2022-08-15T05:31:58.647Z,96194.69
2022-08-15T05:34:37.118Z,96190.16
2022-08-15T05:37:10.989Z,96196.63
2022-08-15T05:39:42.819Z,96190.72
2022-08-15T05:42:31.808Z,96183.81
2022-08-15T05:45:30.897Z,96187.53
2022-08-15T05:48:20.140Z,96191.63
2022-08-15T05:51:00.303Z,96189.31
2022-08-15T05:53:38.478Z,96192.28
2022-08-15T05:56:21.262Z,96192.91
2022-08-15T05:58:57.031Z,96202.19
2022-08-15T06:01:32.764Z,96196.81
2022-08-15T06:04:30.478Z,96198.63
2022-08-15T06:07:06.386Z,96203.06
2022-08-15T06:09:43.137Z,96198.19
2022-08-15T06:12:27.389Z,96190.72
2022-08-15T06:15:05.851Z,96199.94
2022-08-15T06:17:42.968Z,96196.06
2022-08-15T06:20:37.101Z,96198.88
2022-08-15T06:23:37.075Z,96194.13
2022-08-15T06:26:40.416Z,96189.34
2022-08-15T06:29:34.692Z,96194.47
2022-08-15T06:32:22.972Z,96197.16
2022-08-15T06:35:01.486Z,96188.31
2022-08-15T06:37:35.638Z,96192.56
2022-08-15T06:40:36.470Z,96197.25
2022-08-15T06:43:05.003Z,96187.75
2022-08-15T06:46:01.184Z,96202.75
2022-08-15T06:48:58.322Z,96199.91
2022-08-15T06:51:23.558Z,96211.53
2022-08-15T06:53:56.750Z,96206.22
2022-08-15T06:56:33.831Z,96198.06
2022-08-15T06:59:14.506Z,96197.09
2022-08-15T07:02:16.245Z,96199.72
2022-08-15T07:04:53.641Z,96195.75
2022-08-15T07:07:35.767Z,96193.44
2022-08-15T07:10:14.505Z,96187.06
2022-08-15T07:12:52.694Z,96181.31
2022-08-15T07:15:28.771Z,96185.44
2022-08-15T07:18:07.425Z,96186.75
2022-08-15T07:20:39.718Z,96184.59
2022-08-15T07:23:20.471Z,96182.16
2022-08-15T07:25:52.460Z,96190.72
2022-08-15T07:28:29.376Z,96185.44
2022-08-15T07:31:07.540Z,96182.78
2022-08-15T07:33:43.714Z,96187.44
2022-08-15T07:36:29.540Z,96187.44
2022-08-15T07:39:03.609Z,96187.72
2022-08-15T07:41:43.519Z,96192.41
2022-08-15T07:44:28.963Z,96191.88
2022-08-15T07:47:01.022Z,96192.69
2022-08-15T07:49:37.298Z,96194.31
2022-08-15T07:52:08.013Z,96188.28
2022-08-15T07:54:50.607Z,96179.16
2022-08-15T08:00:39.120Z,96184.25
2022-08-15T08:03:19.451Z,96179.44
2022-08-15T08:05:57.562Z,96179.56
2022-08-15T08:08:44.637Z,96180.88
2022-08-15T08:11:25.261Z,96180.88
2022-08-15T08:14:40.449Z,96172.72
2022-08-15T08:16:59.273Z,96169.72
2022-08-15T08:19:38.641Z,96164.97
2022-08-15T08:22:24.906Z,96175.16
2022-08-15T08:25:08.604Z,96176.22
2022-08-15T08:27:53.763Z,96174.53
2022-08-15T08:30:44.421Z,96183.75
2022-08-15T08:33:22.431Z,96183.59
2022-08-15T08:36:02.276Z,96182.56
2022-08-15T08:39:15.809Z,96185.59
2022-08-15T08:41:56.197Z,96184.50
2022-08-15T08:44:35.377Z,96184.25
2022-08-15T08:47:19.706Z,96193.88
2022-08-15T08:50:34.587Z,96196.66
2022-08-15T08:53:04.500Z,96188.94
2022-08-15T08:55:50.158Z,96193.19
2022-08-15T08:58:36.098Z,96194.00
2022-08-15T09:01:17.037Z,96196.88
2022-08-15T09:03:50.829Z,96185.09
2022-08-15T09:06:26.008Z,96183.25
2022-08-15T09:09:03.074Z,96193.59
2022-08-15T09:11:44.915Z,96202.41
2022-08-15T09:14:32.641Z,96203.31
2022-08-15T09:17:31.027Z,96200.19
2022-08-15T09:20:12.294Z,96199.69
2022-08-15T09:22:48.245Z,96207.88
2022-08-15T09:25:17.426Z,96203.38
2022-08-15T09:27:57.753Z,96204.06
2022-08-15T09:30:44.635Z,96205.34
2022-08-15T09:33:52.977Z,96200.03
2022-08-15T09:36:50.040Z,96206.34
2022-08-15T09:39:42.052Z,96198.56
2022-08-15T09:42:35.308Z,96203.31
2022-08-15T09:45:45.530Z,96204.97
2022-08-15T09:48:49.162Z,96178.16
2022-08-15T09:51:39.495Z,96193.28
2022-08-15T09:54:28.744Z,96181.44
2022-08-15T09:57:24.579Z,96172.47
2022-08-15T09:59:58.331Z,96174.09
2022-08-15T10:02:41.363Z,96158.06
2022-08-15T10:05:24.225Z,96158.25
2022-08-15T10:07:55.818Z,96153.19
2022-08-15T10:10:42.489Z,96155.50
2022-08-15T10:13:15.604Z,96147.28
2022-08-15T10:15:51.641Z,96146.75
2022-08-15T10:18:56.818Z,96143.47
2022-08-15T10:21:34.061Z,96137.75
2022-08-15T10:24:02.455Z,96136.63
2022-08-15T10:26:34.643Z,96134.78
2022-08-15T10:29:13.097Z,96130.16
2022-08-15T10:31:55.617Z,96128.28
2022-08-15T10:34:40.089Z,96129.38
2022-08-15T10:37:19.876Z,96124.66
2022-08-15T10:40:29.422Z,96112.94
2022-08-15T10:43:13.370Z,96116.56
2022-08-15T10:45:54.323Z,96113.94
2022-08-15T10:48:44.794Z,96107.06
2022-08-15T10:51:27.153Z,96112.53
2022-08-15T10:54:11.776Z,96111.59
2022-08-15T10:57:05.584Z,96095.88
2022-08-15T10:59:41.883Z,96092.31
2022-08-15T11:02:37.630Z,96090.38
2022-08-15T11:05:11.581Z,96092.25
2022-08-15T11:07:58.172Z,96095.25
2022-08-15T11:10:34.304Z,96096.53
2022-08-15T11:13:09.967Z,96085.75
2022-08-15T11:15:56.328Z,96089.56
2022-08-15T11:18:31.466Z,96092.41
2022-08-15T11:21:16.164Z,96083.31
2022-08-15T11:23:44.509Z,96082.31
2022-08-15T11:26:18.810Z,96073.13
2022-08-15T11:28:58.140Z,96086.69
2022-08-15T11:31:33.913Z,96093.06
2022-08-15T11:34:23.856Z,96091.94
2022-08-15T11:36:59.253Z,96100.44
2022-08-15T11:39:32.637Z,96095.19
2022-08-15T11:42:07.650Z,96094.31
2022-08-15T11:44:42.027Z,96087.88
2022-08-15T11:47:14.762Z,96082.81
2022-08-15T11:49:51.766Z,96086.88
2022-08-15T11:52:40.728Z,96092.47
2022-08-15T11:55:24.020Z,96083.59
2022-08-15T11:57:56.418Z,96078.69
2022-08-15T12:00:28.534Z,96071.56
2022-08-15T12:03:17.559Z,96083.44
2022-08-15T12:06:08.294Z,96081.53
2022-08-15T12:08:35.660Z,96082.56
2022-08-15T12:11:07.582Z,96089.00
2022-08-15T12:13:41.407Z,96082.88
2022-08-15T12:16:26.751Z,96077.78
2022-08-15T12:18:59.098Z,96080.44
2022-08-15T12:21:28.451Z,96083.63
2022-08-15T12:24:05.166Z,96086.69
2022-08-15T12:26:40.392Z,96082.06
2022-08-15T12:29:20.884Z,96077.44
2022-08-15T12:31:55.083Z,96073.19
2022-08-15T12:34:29.011Z,96082.81
2022-08-15T12:37:05.376Z,96089.59
2022-08-15T12:39:41.595Z,96080.44
2022-08-15T12:42:47.713Z,96078.50
2022-08-15T12:45:13.582Z,96068.06
2022-08-15T12:48:05.324Z,96073.38
2022-08-15T12:50:32.393Z,96074.44
2022-08-15T12:53:08.721Z,96077.19
2022-08-15T12:55:38.979Z,96073.22
2022-08-15T12:58:07.747Z,96071.28
2022-08-15T13:01:02.455Z,96081.75
2022-08-15T13:03:39.446Z,96074.53
2022-08-15T13:06:31.977Z,96080.88
2022-08-15T13:09:03.852Z,96076.16
2022-08-15T13:11:32.422Z,96072.69
2022-08-15T13:14:01.461Z,96069.69
2022-08-15T13:17:06.339Z,96072.88
2022-08-15T13:19:24.236Z,96069.22
2022-08-15T13:22:33.077Z,96067.50
2022-08-15T13:25:00.986Z,96055.31
2022-08-15T13:27:31.021Z,96068.13
2022-08-15T13:30:00.736Z,96060.41
2022-08-15T13:32:32.988Z,96053.19
2022-08-15T13:35:08.294Z,96050.81
2022-08-15T13:38:01.089Z,96038.75
2022-08-15T13:40:29.233Z,96044.94
2022-08-15T13:43:03.287Z,96043.09
2022-08-15T13:45:47.962Z,96055.56
2022-08-15T13:48:36.109Z,96056.16
2022-08-15T13:51:11.454Z,96064.13
2022-08-15T13:54:30.920Z,96081.16
2022-08-15T13:56:32.658Z,96085.59
2022-08-15T13:59:01.595Z,96089.22
2022-08-15T14:01:34.414Z,96096.59
2022-08-15T14:04:07.442Z,96093.97
2022-08-15T14:06:40.553Z,96090.09
2022-08-15T14:10:05.686Z,96085.41
2022-08-15T14:12:13.951Z,96082.41
2022-08-15T14:14:46.872Z,96089.84
2022-08-15T14:17:37.167Z,96100.88
2022-08-15T14:20:26.396Z,96111.34
2022-08-15T14:22:58.299Z,96112.06
2022-08-15T14:27:04.570Z,96121.38
2022-08-15T14:28:19.172Z,96105.16
2022-08-15T14:30:55.138Z,96105.94
2022-08-15T14:39:12.474Z,96114.25
2022-08-15T14:41:43.396Z,96128.06
2022-08-15T14:44:48.012Z,96131.28
2022-08-15T14:47:02.081Z,96140.72
2022-08-15T14:50:53.596Z,96147.03
2022-08-15T14:52:26.755Z,96159.53
2022-08-15T14:54:56.091Z,96152.72
2022-08-15T14:57:26.350Z,96148.06
2022-08-15T14:59:59.142Z,96144.91
2022-08-15T15:02:35.985Z,96138.28
2022-08-15T15:05:08.030Z,96133.28
2022-08-15T15:07:54.681Z,96122.50
2022-08-15T15:10:29.469Z,96115.31
2022-08-15T15:13:00.290Z,96117.81
2022-08-15T15:15:39.850Z,96122.44
2022-08-15T15:18:38.216Z,96123.69
2022-08-15T15:21:00.030Z,96126.13
2022-08-15T15:23:29.998Z,96121.66
2022-08-15T15:25:59.170Z,96122.88
2022-08-15T15:28:41.426Z,96127.69
2022-08-15T15:31:12.812Z,96129.13
2022-08-15T15:33:43.526Z,96135.28
2022-08-15T15:36:29.443Z,96132.59
2022-08-15T15:39:03.746Z,96134.59
2022-08-15T15:41:46.173Z,96140.16
2022-08-15T15:44:19.385Z,96133.56
2022-08-15T15:46:52.025Z,96127.97
2022-08-15T15:49:28.900Z,96128.50
2022-08-15T15:51:59.577Z,96123.69
2022-08-15T15:54:35.229Z,96110.06
2022-08-15T15:57:20.386Z,96111.06
2022-08-15T15:59:59.218Z,96107.69
2022-08-15T16:02:48.105Z,96105.31
2022-08-15T16:05:21.728Z,96095.44
2022-08-15T16:07:55.920Z,96101.22
2022-08-15T16:10:40.141Z,96110.13
2022-08-15T16:13:17.069Z,96112.53
2022-08-15T16:15:52.121Z,96112.84
2022-08-15T16:18:26.705Z,96115.19
2022-08-15T16:21:00.284Z,96120.75
2022-08-15T16:23:47.440Z,96121.84
2022-08-15T16:26:31.388Z,96123.00
2022-08-15T16:29:04.494Z,96137.28
2022-08-15T16:31:45.406Z,96125.88
2022-08-15T16:34:28.330Z,96130.88
2022-08-15T16:37:05.400Z,96124.72
2022-08-15T16:39:45.739Z,96126.31
2022-08-15T16:42:41.031Z,96131.84
2022-08-15T16:45:16.287Z,96123.03
2022-08-15T16:47:59.178Z,96132.63
2022-08-15T16:50:38.476Z,96123.91
2022-08-15T16:53:23.323Z,96123.81
2022-08-15T16:56:05.115Z,96117.47
2022-08-15T16:58:46.225Z,96112.25
2022-08-15T17:01:39.349Z,96104.47
2022-08-15T17:04:45.327Z,96103.66
2022-08-15T17:07:23.174Z,96101.31
2022-08-15T17:10:04.158Z,96099.28
2022-08-15T17:12:54.710Z,96085.97
2022-08-15T17:15:35.014Z,96078.88
2022-08-15T17:18:23.402Z,96072.41
2022-08-15T17:21:02.065Z,96073.53
2022-08-15T17:23:40.093Z,96071.78
2022-08-15T17:26:58.378Z,96080.81
2022-08-15T17:29:11.971Z,96083.66
2022-08-15T17:31:43.171Z,96083.97
2022-08-15T17:34:37.335Z,96081.94
2022-08-15T17:37:05.534Z,96087.66
2022-08-15T17:39:52.829Z,96091.53
2022-08-15T17:42:23.616Z,96100.38
2022-08-15T17:45:10.142Z,96104.00
2022-08-15T17:47:53.659Z,96109.19
2022-08-15T17:50:47.906Z,96117.06
2022-08-15T17:53:26.384Z,96112.03
2022-08-15T17:56:00.802Z,96113.72
2022-08-15T17:58:35.378Z,96123.56
2022-08-15T18:01:04.995Z,96121.47
2022-08-15T18:03:34.389Z,96113.69
2022-08-15T18:06:11.327Z,96119.13
2022-08-15T18:08:54.314Z,96127.97
2022-08-15T18:11:35.217Z,96128.03
2022-08-15T18:14:37.548Z,96146.06
2022-08-15T18:16:57.648Z,96153.25
2022-08-15T18:19:28.899Z,96160.81
2022-08-15T18:22:01.549Z,96168.75
2022-08-15T18:24:52.692Z,96170.16
2022-08-15T18:27:54.284Z,96162.50
2022-08-15T18:30:40.685Z,96165.63
2022-08-15T18:33:57.265Z,96165.50
2022-08-15T18:36:27.260Z,96180.91
2022-08-15T18:39:12.103Z,96178.84
2022-08-15T18:41:40.568Z,96190.03
2022-08-15T18:44:21.632Z,96192.56
2022-08-15T18:46:59.810Z,96195.94
2022-08-15T18:49:28.276Z,96196.50
2022-08-15T18:52:04.640Z,96199.25
2022-08-15T18:54:48.739Z,96199.31
2022-08-15T18:57:42.924Z,96204.59
2022-08-15T19:00:23.155Z,96207.13
2022-08-15T19:02:57.349Z,96208.00
2022-08-15T19:05:32.029Z,96208.25
2022-08-15T19:08:26.321Z,96212.97
2022-08-15T19:13:57.233Z,96214.69
2022-08-15T19:16:40.923Z,96211.97
2022-08-15T19:19:21.548Z,96215.28
2022-08-15T19:21:52.113Z,96211.53
2022-08-15T19:24:26.623Z,96213.75
2022-08-15T19:24:28.742Z,96223.38
2022-08-15T19:27:13.728Z,96218.72
2022-08-15T19:29:58.817Z,96212.59
2022-08-15T19:32:41.107Z,96213.13
2022-08-15T19:35:16.804Z,96216.06
2022-08-15T19:38:00.387Z,96214.41
2022-08-15T19:40:36.250Z,96216.75
2022-08-15T19:43:20.216Z,96218.41
2022-08-15T19:45:57.622Z,96216.75
2022-08-15T19:48:36.061Z,96221.25
2022-08-15T19:51:22.584Z,96227.22
2022-08-15T19:55:22.323Z,96234.06
2022-08-15T19:57:51.395Z,96224.03
2022-08-15T20:00:17.388Z,96233.75
2022-08-15T20:02:59.079Z,96232.13
2022-08-15T20:06:06.783Z,96233.88
2022-08-15T20:08:38.023Z,96237.97
2022-08-15T20:11:17.227Z,96244.47
2022-08-15T20:14:01.684Z,96246.81
2022-08-15T20:16:55.791Z,96259.03
2022-08-15T20:19:42.086Z,96265.56
2022-08-15T20:22:34.130Z,96271.13
2022-08-15T20:25:09.412Z,96275.84
2022-08-15T20:27:47.130Z,96275.16
2022-08-15T20:30:36.621Z,96279.28
2022-08-15T20:33:16.792Z,96284.56
2022-08-15T20:35:55.915Z,96291.50
2022-08-15T20:38:34.509Z,96296.75
2022-08-15T20:41:23.487Z,96297.19
2022-08-15T20:43:59.566Z,96307.28
2022-08-15T20:46:43.172Z,96310.44
2022-08-15T20:49:20.362Z,96315.72
2022-08-15T20:52:00.881Z,96313.09
2022-08-15T20:54:45.320Z,96318.06
2022-08-15T20:57:25.801Z,96317.81
2022-08-15T21:00:54.710Z,96315.19
2022-08-15T21:03:13.749Z,96316.16
2022-08-15T21:06:18.271Z,96316.47
2022-08-15T21:08:59.788Z,96319.66
2022-08-15T21:11:52.952Z,96321.69
2022-08-15T21:15:10.348Z,96312.28
2022-08-15T21:17:33.617Z,96319.00
2022-08-15T21:20:30.776Z,96317.84
2022-08-15T21:23:21.604Z,96313.72
2022-08-15T21:25:54.174Z,96317.72
2022-08-15T21:28:33.530Z,96325.38
2022-08-15T21:31:38.976Z,96325.63
2022-08-15T21:34:33.488Z,96322.25
2022-08-15T21:37:35.962Z,96321.13
2022-08-15T21:40:55.943Z,96326.88
2022-08-15T21:44:06.166Z,96336.31
2022-08-15T21:47:32.584Z,96323.97
2022-08-15T21:50:26.480Z,96317.75
2022-08-15T21:53:01.140Z,96321.91
2022-08-15T21:55:46.095Z,96311.53
2022-08-15T21:59:01.065Z,96317.47
2022-08-15T22:01:55.313Z,96320.09
2022-08-15T22:04:34.969Z,96325.56
2022-08-15T22:07:04.444Z,96324.88
2022-08-15T22:09:37.360Z,96318.50
2022-08-15T22:12:15.792Z,96317.78
2022-08-15T22:14:45.542Z,96315.28
2022-08-15T22:17:13.808Z,96315.38
2022-08-15T22:19:45.867Z,96327.59
2022-08-15T22:22:28.553Z,96328.19
2022-08-15T22:24:57.520Z,96323.41
2022-08-15T22:27:34.186Z,96323.28
2022-08-15T22:30:15.047Z,96319.31
2022-08-15T22:32:47.135Z,96320.41
2022-08-15T22:35:18.202Z,96317.13
2022-08-15T22:37:48.275Z,96322.94
2022-08-15T22:40:23.013Z,96326.50
2022-08-15T22:42:57.030Z,96325.09
2022-08-15T22:45:36.290Z,96328.97
2022-08-15T22:48:24.293Z,96327.53
2022-08-15T22:50:59.547Z,96333.06
2022-08-15T22:53:31.987Z,96321.94
2022-08-15T22:56:52.570Z,96323.09
2022-08-15T22:58:51.563Z,96318.34
2022-08-15T23:01:25.177Z,96319.53
2022-08-15T23:03:59.991Z,96323.94
2022-08-15T23:06:38.908Z,96328.88
2022-08-15T23:09:18.835Z,96332.34
2022-08-15T23:11:50.170Z,96335.59
2022-08-15T23:14:25.133Z,96333.44
2022-08-15T23:17:08.626Z,96335.09
2022-08-15T23:19:41.091Z,96341.22
2022-08-15T23:22:32.336Z,96333.06
2022-08-15T23:25:03.409Z,96329.38
2022-08-15T23:27:36.077Z,96332.63
2022-08-15T23:30:45.373Z,96327.19
2022-08-15T23:33:00.530Z,96332.56
2022-08-15T23:35:32.131Z,96324.03
2022-08-15T23:38:11.027Z,96315.84
2022-08-15T23:40:50.715Z,96315.59
2022-08-15T23:43:19.533Z,96318.41
2022-08-15T23:45:54.284Z,96320.00
2022-08-15T23:48:28.879Z,96321.97
2022-08-15T23:51:03.798Z,96326.38
2022-08-15T23:53:36.067Z,96331.97
2022-08-15T23:56:32.266Z,96331.38
2022-08-15T23:58:56.784Z,96325.66
